createdAt,value
2019-03-10T00:00:08.174Z,1001.63
2019-03-10T00:01:08.166Z,1001.61
2019-03-10T00:02:10.349Z,1001.60
2019-03-10T00:03:08.151Z,1001.67
2019-03-10T00:04:08.145Z,1001.66
2019-03-10T00:05:08.123Z,1001.65
2019-03-10T00:06:08.110Z,1001.70
2019-03-10T00:07:08.107Z,1001.66
2019-03-10T00:08:08.306Z,1001.72
2019-03-10T00:09:08.124Z,1001.76
2019-03-10T00:10:08.062Z,1001.74
2019-03-10T00:11:08.054Z,1001.75
2019-03-10T00:12:08.043Z,1001.73
2019-03-10T00:13:08.039Z,1001.72
2019-03-10T00:14:08.029Z,1001.81
2019-03-10T00:15:08.030Z,1001.78
2019-03-10T00:16:08.010Z,1001.83
2019-03-10T00:17:07.986Z,1001.83
2019-03-10T00:18:07.975Z,1001.83
2019-03-10T00:19:07.965Z,1001.82
2019-03-10T00:20:07.954Z,1001.83
2019-03-10T00:21:07.958Z,1001.77
2019-03-10T00:22:07.958Z,1001.73
2019-03-10T00:23:07.919Z,1001.74
2019-03-10T00:24:07.913Z,1001.67
2019-03-10T00:25:07.897Z,1001.74
2019-03-10T00:26:07.893Z,1001.76
2019-03-10T00:27:07.892Z,1001.69
2019-03-10T00:28:07.878Z,1001.70
2019-03-10T00:29:07.852Z,1001.70
2019-03-10T00:30:07.854Z,1001.71
2019-03-10T00:31:07.831Z,1001.69
2019-03-10T00:32:07.819Z,1001.66
2019-03-10T00:33:07.819Z,1001.59
2019-03-10T00:34:07.811Z,1001.51
2019-03-10T00:35:07.786Z,1001.52
2019-03-10T00:36:07.775Z,1001.50
2019-03-10T00:37:07.766Z,1001.50
2019-03-10T00:38:07.763Z,1001.53
2019-03-10T00:39:07.762Z,1001.49
2019-03-10T00:40:07.730Z,1001.52
2019-03-10T00:41:07.722Z,1001.46
2019-03-10T00:42:07.729Z,1001.53
2019-03-10T00:43:07.695Z,1001.48
2019-03-10T00:44:07.687Z,1001.48
2019-03-10T00:45:07.705Z,1001.51
2019-03-10T00:46:07.664Z,1001.45
2019-03-10T00:47:07.657Z,1001.43
2019-03-10T00:48:07.641Z,1001.39
2019-03-10T00:49:07.631Z,1001.47
2019-03-10T00:50:07.627Z,1001.42
2019-03-10T00:51:07.639Z,1001.45
2019-03-10T00:52:07.600Z,1001.47
2019-03-10T00:53:07.588Z,1001.44
2019-03-10T00:54:07.581Z,1001.49
2019-03-10T00:55:07.562Z,1001.49
2019-03-10T00:56:07.566Z,1001.49
2019-03-10T00:57:07.539Z,1001.49
2019-03-10T00:58:07.531Z,1001.50
2019-03-10T00:59:07.541Z,1001.47
2019-03-10T01:00:07.507Z,1001.43
2019-03-10T01:01:07.506Z,1001.43
2019-03-10T01:02:07.497Z,1001.50
2019-03-10T01:03:07.474Z,1001.38
2019-03-10T01:04:07.466Z,1001.37
2019-03-10T01:05:07.457Z,1001.39
2019-03-10T01:06:07.440Z,1001.40
2019-03-10T01:07:07.449Z,1001.34
2019-03-10T01:08:07.418Z,1001.35
2019-03-10T01:09:07.407Z,1001.39
2019-03-10T01:10:07.395Z,1001.35
2019-03-10T01:11:07.434Z,1001.36
2019-03-10T01:12:07.386Z,1001.35
2019-03-10T01:13:07.367Z,1001.29
2019-03-10T01:14:07.364Z,1001.35
2019-03-10T01:15:07.341Z,1001.36
2019-03-10T01:16:07.329Z,1001.33
2019-03-10T01:17:07.335Z,1001.32
2019-03-10T01:18:07.307Z,1001.34
2019-03-10T01:19:07.312Z,1001.34
2019-03-10T01:20:07.284Z,1001.30
2019-03-10T01:21:07.271Z,1001.27
2019-03-10T01:22:07.263Z,1001.29
2019-03-10T01:23:07.271Z,1001.24
2019-03-10T01:24:07.281Z,1001.27
2019-03-10T01:25:07.230Z,1001.30
2019-03-10T01:26:07.219Z,1001.18
2019-03-10T01:27:07.209Z,1001.20
2019-03-10T01:28:07.205Z,1001.21
2019-03-10T01:29:07.190Z,1001.23
2019-03-10T01:30:07.194Z,1001.22
2019-03-10T01:31:07.187Z,1001.25
2019-03-10T01:32:07.172Z,1001.25
2019-03-10T01:33:07.142Z,1001.26
2019-03-10T01:34:07.138Z,1001.26
2019-03-10T01:35:07.122Z,1001.25
2019-03-10T01:36:07.117Z,1001.20
2019-03-10T01:37:07.160Z,1001.22
2019-03-10T01:38:07.092Z,1001.22
2019-03-10T01:39:07.074Z,1001.19
2019-03-10T01:40:07.069Z,1001.22
2019-03-10T01:41:07.052Z,1001.12
2019-03-10T01:42:07.059Z,1001.15
2019-03-10T01:43:07.034Z,1001.10
2019-03-10T01:44:07.025Z,1001.10
2019-03-10T01:45:07.009Z,1001.10
2019-03-10T01:46:06.996Z,1001.09
2019-03-10T01:47:07.001Z,1001.06
2019-03-10T01:48:06.982Z,1001.11
2019-03-10T01:49:06.964Z,1001.10
2019-03-10T01:50:06.953Z,1001.06
2019-03-10T01:51:06.942Z,1001.03
2019-03-10T01:52:06.943Z,1001.01
2019-03-10T01:53:06.932Z,1001.03
2019-03-10T01:54:06.923Z,1001.04
2019-03-10T01:55:06.901Z,1000.98
2019-03-10T01:56:06.885Z,1001.05
2019-03-10T01:57:06.875Z,1001.05
2019-03-10T01:58:06.899Z,1001.03
2019-03-10T01:59:06.853Z,1001.01
2019-03-10T02:00:06.846Z,1001.02
2019-03-10T02:01:06.830Z,1001.01
2019-03-10T02:02:06.821Z,1001.04
2019-03-10T02:03:06.809Z,1000.99
2019-03-10T02:04:06.816Z,1000.98
2019-03-10T02:05:06.787Z,1001.00
2019-03-10T02:06:06.780Z,1001.02
2019-03-10T02:07:06.765Z,1000.95
2019-03-10T02:08:06.761Z,1000.93
2019-03-10T02:09:06.743Z,1000.81
2019-03-10T02:10:06.760Z,1000.83
2019-03-10T02:11:06.719Z,1000.74
2019-03-10T02:12:06.716Z,1000.74
2019-03-10T02:13:06.699Z,1000.81
2019-03-10T02:14:06.687Z,1000.78
2019-03-10T02:15:06.676Z,1000.71
2019-03-10T02:16:06.701Z,1000.68
2019-03-10T02:17:06.661Z,1000.69
2019-03-10T02:18:06.651Z,1000.68
2019-03-10T02:19:06.639Z,1000.67
2019-03-10T02:20:06.625Z,1000.66
2019-03-10T02:21:06.609Z,1000.67
2019-03-10T02:22:06.611Z,1000.57
2019-03-10T02:23:06.591Z,1000.50
2019-03-10T02:24:06.576Z,1000.50
2019-03-10T02:25:06.580Z,1000.49
2019-03-10T02:26:06.557Z,1000.49
2019-03-10T02:27:06.576Z,1000.41
2019-03-10T02:28:06.531Z,1000.36
2019-03-10T02:29:06.524Z,1000.34
2019-03-10T02:30:06.514Z,1000.30
2019-03-10T02:31:06.516Z,1000.30
2019-03-10T02:32:06.488Z,1000.30
2019-03-10T02:33:06.490Z,1000.29
2019-03-10T02:34:06.467Z,1000.33
2019-03-10T02:35:06.472Z,1000.26
2019-03-10T02:36:06.454Z,1000.27
2019-03-10T02:37:06.449Z,1000.26
2019-03-10T02:38:06.421Z,1000.27
2019-03-10T02:39:06.412Z,1000.21
2019-03-10T02:40:06.411Z,1000.15
2019-03-10T02:41:06.389Z,1000.18
2019-03-10T02:42:06.376Z,1000.19
2019-03-10T02:43:06.377Z,1000.17
2019-03-10T02:44:06.370Z,1000.15
2019-03-10T02:45:06.344Z,1000.19
2019-03-10T02:46:06.341Z,1000.15
2019-03-10T02:47:06.356Z,1000.22
2019-03-10T02:48:06.312Z,1000.27
2019-03-10T02:49:06.343Z,1000.26
2019-03-10T02:50:06.295Z,1000.31
2019-03-10T02:51:06.277Z,1000.33
2019-03-10T02:52:06.267Z,1000.34
2019-03-10T02:53:06.255Z,1000.31
2019-03-10T02:54:06.244Z,1000.38
2019-03-10T02:55:06.251Z,1000.38
2019-03-10T02:56:06.224Z,1000.50
2019-03-10T02:57:06.215Z,1000.48
2019-03-10T02:58:06.209Z,1000.44
2019-03-10T02:59:06.192Z,1000.41
2019-03-10T03:00:06.190Z,1000.41
2019-03-10T03:01:06.171Z,1000.37
2019-03-10T03:02:06.162Z,1000.27
2019-03-10T03:03:06.155Z,1000.29
2019-03-10T03:04:06.147Z,1000.26
2019-03-10T03:05:06.127Z,1000.27
2019-03-10T03:06:06.110Z,1000.28
2019-03-10T03:07:06.101Z,1000.33
2019-03-10T03:08:06.095Z,1000.36
2019-03-10T03:09:06.102Z,1000.36
2019-03-10T03:10:06.074Z,1000.34
2019-03-10T03:11:06.053Z,1000.37
2019-03-10T03:12:06.045Z,1000.32
2019-03-10T03:13:06.041Z,1000.31
2019-03-10T03:14:06.025Z,1000.30
2019-03-10T03:15:06.030Z,1000.29
2019-03-10T03:16:06.011Z,1000.25
2019-03-10T03:17:05.991Z,1000.28
2019-03-10T03:18:05.987Z,1000.23
2019-03-10T03:19:05.980Z,1000.26
2019-03-10T03:20:05.955Z,1000.20
2019-03-10T03:21:05.963Z,1000.19
2019-03-10T03:22:05.938Z,1000.21
2019-03-10T03:23:05.930Z,1000.17
2019-03-10T03:24:05.923Z,1000.12
2019-03-10T03:25:05.936Z,1000.17
2019-03-10T03:26:05.902Z,1000.05
2019-03-10T03:27:05.890Z,999.95
2019-03-10T03:28:05.865Z,999.95
2019-03-10T03:29:05.870Z,999.90
2019-03-10T03:30:06.201Z,999.86
2019-03-10T03:31:05.866Z,999.81
2019-03-10T03:32:05.877Z,999.73
2019-03-10T03:33:05.810Z,999.74
2019-03-10T03:34:05.811Z,999.74
2019-03-10T03:35:05.809Z,999.77
2019-03-10T03:36:05.819Z,999.72
2019-03-10T03:37:05.797Z,999.73
2019-03-10T03:38:05.783Z,999.77
2019-03-10T03:39:05.746Z,999.73
2019-03-10T03:40:05.739Z,999.71
2019-03-10T03:41:05.721Z,999.67
2019-03-10T03:42:05.736Z,999.67
2019-03-10T03:43:05.707Z,999.66
2019-03-10T03:44:05.699Z,999.64
2019-03-10T03:45:05.710Z,999.71
2019-03-10T03:46:05.666Z,999.62
2019-03-10T03:47:05.666Z,999.62
2019-03-10T03:48:05.775Z,999.69
2019-03-10T03:49:05.637Z,999.71
2019-03-10T03:50:05.627Z,999.65
2019-03-10T03:51:05.633Z,999.62
2019-03-10T03:52:05.598Z,999.68
2019-03-10T03:53:05.592Z,999.66
2019-03-10T03:54:05.587Z,999.63
2019-03-10T03:55:05.572Z,999.59
2019-03-10T03:56:05.561Z,999.56
2019-03-10T03:57:05.557Z,999.52
2019-03-10T03:58:05.533Z,999.57
2019-03-10T03:59:05.532Z,999.57
2019-03-10T04:00:05.522Z,999.49
2019-03-10T04:01:05.500Z,999.48
2019-03-10T04:02:05.632Z,999.51
2019-03-10T04:03:05.478Z,999.53
2019-03-10T04:04:05.466Z,999.48
2019-03-10T04:05:05.454Z,999.48
2019-03-10T04:06:05.447Z,999.53
2019-03-10T04:07:05.437Z,999.49
2019-03-10T04:08:05.443Z,999.46
2019-03-10T04:09:05.435Z,999.38
2019-03-10T04:10:05.400Z,999.36
2019-03-10T04:11:05.392Z,999.38
2019-03-10T04:12:05.382Z,999.40
2019-03-10T04:13:05.375Z,999.38
2019-03-10T04:14:05.376Z,999.39
2019-03-10T04:15:05.391Z,999.33
2019-03-10T04:16:05.334Z,999.32
2019-03-10T04:17:05.330Z,999.35
2019-03-10T04:18:05.314Z,999.33
2019-03-10T04:19:05.305Z,999.36
2019-03-10T04:20:05.292Z,999.36
2019-03-10T04:21:05.336Z,999.33
2019-03-10T04:22:05.265Z,999.29
2019-03-10T04:23:05.259Z,999.23
2019-03-10T04:24:05.245Z,999.19
2019-03-10T04:25:05.233Z,999.14
2019-03-10T04:26:05.229Z,999.13
2019-03-10T04:27:05.235Z,999.14
2019-03-10T04:28:05.202Z,999.13
2019-03-10T04:29:05.191Z,999.11
2019-03-10T04:30:05.196Z,999.08
2019-03-10T04:31:05.179Z,999.03
2019-03-10T04:32:05.155Z,999.07
2019-03-10T04:33:05.150Z,999.00
2019-03-10T04:34:05.130Z,998.94
2019-03-10T04:35:05.185Z,998.92
2019-03-10T04:36:05.109Z,998.95
2019-03-10T04:37:05.099Z,998.90
2019-03-10T04:38:05.092Z,998.86
2019-03-10T04:39:05.086Z,998.88
2019-03-10T04:40:05.067Z,998.85
2019-03-10T04:41:05.136Z,998.83
2019-03-10T04:42:05.079Z,998.81
2019-03-10T04:43:05.033Z,998.80
2019-03-10T04:44:05.024Z,998.79
2019-03-10T04:45:05.018Z,998.77
2019-03-10T04:46:05.002Z,998.71
2019-03-10T04:47:04.989Z,998.69
2019-03-10T04:48:04.990Z,998.68
2019-03-10T04:49:04.968Z,998.65
2019-03-10T04:50:04.958Z,998.64
2019-03-10T04:51:04.951Z,998.67
2019-03-10T04:52:04.935Z,998.64
2019-03-10T04:53:04.957Z,998.64
2019-03-10T04:54:04.915Z,998.64
2019-03-10T04:55:04.901Z,998.63
2019-03-10T04:56:04.892Z,998.64
2019-03-10T04:57:04.885Z,998.61
2019-03-10T04:58:04.868Z,998.54
2019-03-10T04:59:04.875Z,998.50
2019-03-10T05:00:04.843Z,998.50
2019-03-10T05:01:04.835Z,998.53
2019-03-10T05:02:04.823Z,998.55
2019-03-10T05:03:04.820Z,998.49
2019-03-10T05:04:04.807Z,998.46
2019-03-10T05:05:04.831Z,998.45
2019-03-10T05:06:04.780Z,998.39
2019-03-10T05:07:04.773Z,998.34
2019-03-10T05:08:04.765Z,998.32
2019-03-10T05:09:04.751Z,998.31
2019-03-10T05:10:04.743Z,998.30
2019-03-10T05:11:04.738Z,998.28
2019-03-10T05:12:04.712Z,998.31
2019-03-10T05:13:04.702Z,998.25
2019-03-10T05:14:04.694Z,998.25
2019-03-10T05:15:04.678Z,998.19
2019-03-10T05:16:04.692Z,998.15
2019-03-10T05:17:04.658Z,998.19
2019-03-10T05:18:04.647Z,998.18
2019-03-10T05:19:04.637Z,998.16
2019-03-10T05:20:04.625Z,998.11
2019-03-10T05:21:04.626Z,998.14
2019-03-10T05:22:04.606Z,998.15
2019-03-10T05:23:04.590Z,998.12
2019-03-10T05:24:04.594Z,998.09
2019-03-10T05:25:04.568Z,998.11
2019-03-10T05:26:04.566Z,998.04
2019-03-10T05:27:04.548Z,998.04
2019-03-10T05:28:04.541Z,997.99
2019-03-10T05:29:04.545Z,997.95
2019-03-10T05:30:04.514Z,997.92
2019-03-10T05:31:04.508Z,997.92
2019-03-10T05:32:04.491Z,997.95
2019-03-10T05:33:04.482Z,997.95
2019-03-10T05:34:04.483Z,997.91
2019-03-10T05:35:04.467Z,997.85
2019-03-10T05:36:04.461Z,997.80
2019-03-10T05:37:04.443Z,997.83
2019-03-10T05:38:04.427Z,997.80
2019-03-10T05:39:04.414Z,997.68
2019-03-10T05:40:04.404Z,997.70
2019-03-10T05:41:04.411Z,997.64
2019-03-10T05:42:04.381Z,997.66
2019-03-10T05:43:04.370Z,997.64
2019-03-10T05:44:04.360Z,997.57
2019-03-10T05:45:04.348Z,997.53
2019-03-10T05:46:04.381Z,997.48
2019-03-10T05:47:04.339Z,997.53
2019-03-10T05:48:04.316Z,997.52
2019-03-10T05:49:04.303Z,997.48
2019-03-10T05:50:04.292Z,997.47
2019-03-10T05:51:04.279Z,997.51
2019-03-10T05:52:04.288Z,997.51
2019-03-10T05:53:04.256Z,997.48
2019-03-10T05:54:04.261Z,997.47
2019-03-10T05:55:04.237Z,997.43
2019-03-10T05:56:04.226Z,997.44
2019-03-10T05:57:04.250Z,997.39
2019-03-10T05:58:04.203Z,997.39
2019-03-10T05:59:04.203Z,997.31
2019-03-10T06:00:04.202Z,997.27
2019-03-10T06:01:04.169Z,997.30
2019-03-10T06:02:04.162Z,997.33
2019-03-10T06:03:04.185Z,997.32
2019-03-10T06:04:04.139Z,997.29
2019-03-10T06:05:05.927Z,997.30
2019-03-10T06:06:04.122Z,997.30
2019-03-10T06:07:04.109Z,997.32
2019-03-10T06:08:04.092Z,997.26
2019-03-10T06:09:04.120Z,997.23
2019-03-10T06:10:04.071Z,997.24
2019-03-10T06:11:04.066Z,997.16
2019-03-10T06:12:04.061Z,997.19
2019-03-10T06:13:04.054Z,997.20
2019-03-10T06:14:04.026Z,997.17
2019-03-10T06:15:04.035Z,997.16
2019-03-10T06:16:04.003Z,997.16
2019-03-10T06:17:03.992Z,997.16
2019-03-10T06:18:13.106Z,997.10
2019-03-10T06:19:04.971Z,997.17
2019-03-10T06:20:03.970Z,997.13
2019-03-10T06:21:03.980Z,997.13
2019-03-10T06:22:03.942Z,997.12
2019-03-10T06:23:03.932Z,997.11
2019-03-10T06:24:03.916Z,997.09
2019-03-10T06:25:03.914Z,997.05
2019-03-10T06:26:03.923Z,997.08
2019-03-10T06:27:03.896Z,997.00
2019-03-10T06:28:03.875Z,997.04
2019-03-10T06:29:03.862Z,997.05
2019-03-10T06:30:03.846Z,997.01
2019-03-10T06:31:03.898Z,997.01
2019-03-10T06:32:03.832Z,997.03
2019-03-10T06:33:03.824Z,996.97
2019-03-10T06:34:03.807Z,997.02
2019-03-10T06:35:03.798Z,996.97
2019-03-10T06:36:03.783Z,996.99
2019-03-10T06:37:03.776Z,997.00
2019-03-10T06:38:03.778Z,997.00
2019-03-10T06:39:03.766Z,997.01
2019-03-10T06:40:03.737Z,996.92
2019-03-10T06:41:03.737Z,996.94
2019-03-10T06:42:03.712Z,996.93
2019-03-10T06:43:03.706Z,996.89
2019-03-10T06:44:03.703Z,996.85
2019-03-10T06:45:03.691Z,996.87
2019-03-10T06:46:03.672Z,996.85
2019-03-10T06:47:03.659Z,996.86
2019-03-10T06:48:03.645Z,996.82
2019-03-10T06:49:03.642Z,996.79
2019-03-10T06:50:03.646Z,996.80
2019-03-10T06:51:03.611Z,996.71
2019-03-10T06:52:03.599Z,996.72
2019-03-10T06:53:03.595Z,996.70
2019-03-10T06:54:03.579Z,996.67
2019-03-10T06:55:03.585Z,996.67
2019-03-10T06:56:03.569Z,996.64
2019-03-10T06:57:03.557Z,996.54
2019-03-10T06:58:03.531Z,996.54
2019-03-10T06:59:03.528Z,996.61
2019-03-10T07:00:03.534Z,996.56
2019-03-10T07:01:03.541Z,996.49
2019-03-10T07:02:03.492Z,996.50
2019-03-10T07:03:03.476Z,996.45
2019-03-10T07:04:03.466Z,996.42
2019-03-10T07:05:03.453Z,996.38
2019-03-10T07:06:03.479Z,996.35
2019-03-10T07:07:03.429Z,996.37
2019-03-10T07:08:03.422Z,996.35
2019-03-10T07:09:03.418Z,996.32
2019-03-10T07:10:03.409Z,996.28
2019-03-10T07:11:03.385Z,996.26
2019-03-10T07:12:03.393Z,996.26
2019-03-10T07:13:03.375Z,996.25
2019-03-10T07:14:03.354Z,996.23
2019-03-10T07:15:03.340Z,996.20
2019-03-10T07:16:03.333Z,996.19
2019-03-10T07:17:03.323Z,996.18
2019-03-10T07:18:03.327Z,996.16
2019-03-10T07:19:03.311Z,996.14
2019-03-10T07:20:03.287Z,996.16
2019-03-10T07:21:03.272Z,996.12
2019-03-10T07:22:03.274Z,996.15
2019-03-10T07:23:03.274Z,996.14
2019-03-10T07:24:03.239Z,996.11
2019-03-10T07:25:03.227Z,996.04
2019-03-10T07:26:03.215Z,996.04
2019-03-10T07:27:03.218Z,996.01
2019-03-10T07:28:03.203Z,995.96
2019-03-10T07:29:03.200Z,995.91
2019-03-10T07:30:03.172Z,995.93
2019-03-10T07:31:03.164Z,995.92
2019-03-10T07:32:03.163Z,995.87
2019-03-10T07:33:03.140Z,995.88
2019-03-10T07:34:03.161Z,995.92
2019-03-10T07:35:03.118Z,995.89
2019-03-10T07:36:03.113Z,995.84
2019-03-10T07:37:03.095Z,995.83
2019-03-10T07:38:03.082Z,995.77
2019-03-10T07:39:03.100Z,995.77
2019-03-10T07:40:03.090Z,995.80
2019-03-10T07:41:03.057Z,995.77
2019-03-10T07:42:03.045Z,995.74
2019-03-10T07:43:03.029Z,995.74
2019-03-10T07:44:03.017Z,995.69
2019-03-10T07:45:03.005Z,995.69
2019-03-10T07:46:03.025Z,995.67
2019-03-10T07:47:02.982Z,995.72
2019-03-10T07:48:03.015Z,995.71
2019-03-10T07:49:02.965Z,995.67
2019-03-10T07:50:02.947Z,995.64
2019-03-10T07:51:02.936Z,995.62
2019-03-10T07:52:02.944Z,995.62
2019-03-10T07:53:02.918Z,995.62
2019-03-10T07:54:02.903Z,995.62
2019-03-10T07:55:02.898Z,995.56
2019-03-10T07:56:02.883Z,995.53
2019-03-10T07:57:02.909Z,995.55
2019-03-10T07:58:02.859Z,995.46
2019-03-10T07:59:02.860Z,995.44
2019-03-10T08:00:02.837Z,995.46
2019-03-10T08:01:02.830Z,995.49
2019-03-10T08:02:02.823Z,995.46
2019-03-10T08:03:02.816Z,995.47
2019-03-10T08:04:02.791Z,995.46
2019-03-10T08:05:02.779Z,995.39
2019-03-10T08:06:02.790Z,995.40
2019-03-10T08:07:02.772Z,995.36
2019-03-10T08:08:02.794Z,995.37
2019-03-10T08:09:02.734Z,995.35
2019-03-10T08:10:02.723Z,995.40
2019-03-10T08:11:02.712Z,995.30
2019-03-10T08:12:02.700Z,995.35
2019-03-10T08:13:02.691Z,995.37
2019-03-10T08:14:02.718Z,995.40
2019-03-10T08:15:02.673Z,995.38
2019-03-10T08:16:02.656Z,995.40
2019-03-10T08:17:02.651Z,995.36
2019-03-10T08:18:02.632Z,995.40
2019-03-10T08:19:02.621Z,995.34
2019-03-10T08:20:02.636Z,995.31
2019-03-10T08:21:02.605Z,995.31
2019-03-10T08:22:02.603Z,995.34
2019-03-10T08:23:02.577Z,995.33
2019-03-10T08:24:02.566Z,995.39
2019-03-10T08:25:02.555Z,995.37
2019-03-10T08:26:02.564Z,995.33
2019-03-10T08:27:02.529Z,995.38
2019-03-10T08:28:02.527Z,995.33
2019-03-10T08:29:02.555Z,995.28
2019-03-10T08:30:02.497Z,995.23
2019-03-10T08:31:02.487Z,995.26
2019-03-10T08:32:02.491Z,995.18
2019-03-10T08:33:02.464Z,995.14
2019-03-10T08:34:02.458Z,995.17
2019-03-10T08:35:02.441Z,995.16
2019-03-10T08:36:02.434Z,995.18
2019-03-10T08:37:02.452Z,995.16
2019-03-10T08:38:02.417Z,995.17
2019-03-10T08:39:02.398Z,995.11
2019-03-10T08:40:02.394Z,995.14
2019-03-10T08:41:02.374Z,995.11
2019-03-10T08:42:02.363Z,995.09
2019-03-10T08:43:02.364Z,995.03
2019-03-10T08:44:02.350Z,995.07
2019-03-10T08:45:02.342Z,995.00
2019-03-10T08:46:02.323Z,994.98
2019-03-10T08:47:02.307Z,995.01
2019-03-10T08:48:02.309Z,995.06
2019-03-10T08:49:02.290Z,995.03
2019-03-10T08:50:02.273Z,994.98
2019-03-10T08:51:02.276Z,994.97
2019-03-10T08:52:02.256Z,995.00
2019-03-10T08:53:02.245Z,994.96
2019-03-10T08:54:02.229Z,995.03
2019-03-10T08:55:02.218Z,995.01
2019-03-10T08:56:02.240Z,995.00
2019-03-10T08:57:02.194Z,995.01
2019-03-10T08:58:02.186Z,994.95
2019-03-10T08:59:02.175Z,994.95
2019-03-10T09:00:02.170Z,994.99
2019-03-10T09:01:02.148Z,994.95
2019-03-10T09:02:02.185Z,994.96
2019-03-10T09:03:02.139Z,994.94
2019-03-10T09:04:02.115Z,994.94
2019-03-10T09:05:02.108Z,994.91
2019-03-10T09:06:02.095Z,994.92
2019-03-10T09:07:02.095Z,994.88
2019-03-10T09:08:02.070Z,994.85
2019-03-10T09:09:02.061Z,994.83
2019-03-10T09:10:02.050Z,994.77
2019-03-10T09:11:02.043Z,994.79
2019-03-10T09:12:02.064Z,994.77
2019-03-10T09:13:02.014Z,994.76
2019-03-10T09:14:02.004Z,994.76
2019-03-10T09:15:01.991Z,994.80
2019-03-10T09:16:01.982Z,994.83
2019-03-10T09:17:01.974Z,994.76
2019-03-10T09:18:01.969Z,994.77
2019-03-10T09:19:02.027Z,994.79
2019-03-10T09:20:01.948Z,994.73
2019-03-10T09:21:01.928Z,994.68
2019-03-10T09:22:01.917Z,994.70
2019-03-10T09:23:01.920Z,994.65
2019-03-10T09:24:01.894Z,994.63
2019-03-10T09:25:01.895Z,994.63
2019-03-10T09:26:01.870Z,994.57
2019-03-10T09:27:01.858Z,994.53
2019-03-10T09:28:01.869Z,994.53
2019-03-10T09:29:01.841Z,994.51
2019-03-10T09:30:01.834Z,994.50
2019-03-10T09:31:01.815Z,994.47
2019-03-10T09:32:01.809Z,994.45
2019-03-10T09:33:01.789Z,994.42
2019-03-10T09:34:01.816Z,994.41
2019-03-10T09:35:01.770Z,994.39
2019-03-10T09:36:01.766Z,994.38
2019-03-10T09:37:01.749Z,994.34
2019-03-10T09:38:03.642Z,994.30
2019-03-10T09:39:01.731Z,994.24
2019-03-10T09:40:01.726Z,994.21
2019-03-10T09:41:01.705Z,994.14
2019-03-10T09:42:01.711Z,994.15
2019-03-10T09:43:01.683Z,994.15
2019-03-10T09:44:03.693Z,994.12
2019-03-10T09:45:01.666Z,994.15
2019-03-10T09:46:01.643Z,994.13
2019-03-10T09:47:01.700Z,994.08
2019-03-10T09:48:01.620Z,994.07
2019-03-10T09:49:01.622Z,994.08
2019-03-10T09:50:01.603Z,994.07
2019-03-10T09:51:01.586Z,994.03
2019-03-10T09:52:01.575Z,994.03
2019-03-10T09:53:01.605Z,994.00
2019-03-10T09:54:01.554Z,994.04
2019-03-10T09:55:01.877Z,994.00
2019-03-10T09:56:01.538Z,993.99
2019-03-10T09:57:01.522Z,994.00
2019-03-10T09:58:01.510Z,993.94
2019-03-10T09:59:01.521Z,993.91
2019-03-10T10:00:01.486Z,993.93
2019-03-10T10:01:01.474Z,993.89
2019-03-10T10:02:01.463Z,993.88
2019-03-10T10:03:01.453Z,993.83
2019-03-10T10:04:01.453Z,993.78
2019-03-10T10:05:01.468Z,993.74
2019-03-10T10:06:01.418Z,993.73
2019-03-10T10:07:01.410Z,993.67
2019-03-10T10:08:01.396Z,993.59
2019-03-10T10:09:01.385Z,993.52
2019-03-10T10:10:01.374Z,993.54
2019-03-10T10:11:01.397Z,993.50
2019-03-10T10:12:01.351Z,993.48
2019-03-10T10:13:01.343Z,993.45
2019-03-10T10:14:01.338Z,993.45
2019-03-10T10:15:01.324Z,993.42
2019-03-10T10:16:01.336Z,993.44
2019-03-10T10:17:01.303Z,993.44
2019-03-10T10:18:01.284Z,993.39
2019-03-10T10:19:01.272Z,993.39
2019-03-10T10:20:01.263Z,993.40
2019-03-10T10:21:01.250Z,993.41
2019-03-10T10:22:01.251Z,993.37
2019-03-10T10:23:01.231Z,993.36
2019-03-10T10:24:01.223Z,993.36
2019-03-10T10:25:01.208Z,993.37
2019-03-10T10:26:01.195Z,993.40
2019-03-10T10:27:01.197Z,993.37
2019-03-10T10:28:01.173Z,993.37
2019-03-10T10:29:01.163Z,993.41
2019-03-10T10:30:01.162Z,993.36
2019-03-10T10:31:01.141Z,993.35
2019-03-10T10:32:01.151Z,993.34
2019-03-10T10:33:01.116Z,993.29
2019-03-10T10:34:01.105Z,993.26
2019-03-10T10:35:01.121Z,993.23
2019-03-10T10:36:01.086Z,993.17
2019-03-10T10:37:01.070Z,993.15
2019-03-10T10:38:01.100Z,993.13
2019-03-10T10:39:01.048Z,993.09
2019-03-10T10:40:01.045Z,992.97
2019-03-10T10:41:01.026Z,992.97
2019-03-10T10:42:01.021Z,992.91
2019-03-10T10:43:01.015Z,992.91
2019-03-10T10:44:01.008Z,992.89
2019-03-10T10:45:00.981Z,992.87
2019-03-10T10:46:01.019Z,992.84
2019-03-10T10:47:00.964Z,992.83
2019-03-10T10:48:00.978Z,992.81
2019-03-10T10:49:00.946Z,992.77
2019-03-10T10:50:00.944Z,992.75
2019-03-10T10:51:00.916Z,992.73
2019-03-10T10:52:00.915Z,992.68
2019-03-10T10:53:00.937Z,992.64
2019-03-10T10:54:00.888Z,992.64
2019-03-10T10:55:00.905Z,992.58
2019-03-10T10:56:00.864Z,992.54
2019-03-10T10:57:00.852Z,992.52
2019-03-10T10:58:00.834Z,992.48
2019-03-10T10:59:00.828Z,992.49
2019-03-10T11:00:00.819Z,992.44
2019-03-10T11:01:00.817Z,992.43
2019-03-10T11:02:00.790Z,992.41
2019-03-10T11:03:00.787Z,992.41
2019-03-10T11:04:00.767Z,992.42
2019-03-10T11:05:00.812Z,992.42
2019-03-10T11:06:00.752Z,992.38
2019-03-10T11:07:00.744Z,992.40
2019-03-10T11:08:00.725Z,992.41
2019-03-10T11:09:02.760Z,992.39
2019-03-10T11:10:00.701Z,992.39
2019-03-10T11:11:00.701Z,992.40
2019-03-10T11:12:00.683Z,992.34
2019-03-10T11:13:00.671Z,992.34
2019-03-10T11:14:00.656Z,992.29
2019-03-10T11:15:00.704Z,992.27
2019-03-10T11:16:00.649Z,992.25
2019-03-10T11:17:00.621Z,992.19
2019-03-10T11:18:08.839Z,992.17
2019-03-10T11:19:01.608Z,992.18
2019-03-10T11:20:00.590Z,992.13
2019-03-10T11:21:00.623Z,992.11
2019-03-10T11:22:00.566Z,992.09
2019-03-10T11:23:00.565Z,992.07
2019-03-10T11:24:00.543Z,992.05
2019-03-10T11:25:00.540Z,992.03
2019-03-10T11:26:00.529Z,991.98
2019-03-10T11:27:00.552Z,991.98
2019-03-10T11:28:00.498Z,991.96
2019-03-10T11:29:03.610Z,991.93
2019-03-10T11:30:00.476Z,991.89
2019-03-10T11:31:00.463Z,991.91
2019-03-10T11:32:00.454Z,991.85
2019-03-10T11:33:00.456Z,991.80
2019-03-10T11:34:00.439Z,991.78
2019-03-10T11:35:00.420Z,991.76
2019-03-10T11:36:00.424Z,991.74
2019-03-10T11:37:00.406Z,991.80
2019-03-10T11:38:00.407Z,991.79
2019-03-10T11:39:00.388Z,991.78
2019-03-10T11:40:00.363Z,991.77
2019-03-10T11:41:00.353Z,991.77
2019-03-10T11:42:00.352Z,991.74
2019-03-10T11:43:00.346Z,991.69
2019-03-10T11:44:00.317Z,991.73
2019-03-10T11:45:00.445Z,991.70
2019-03-10T11:46:00.329Z,991.72
2019-03-10T11:47:00.283Z,991.69
2019-03-10T11:48:00.274Z,991.68
2019-03-10T11:49:00.268Z,991.66
2019-03-10T11:50:00.384Z,991.67
2019-03-10T11:51:00.259Z,991.64
2019-03-10T11:52:00.229Z,991.64
2019-03-10T11:53:00.225Z,991.60
2019-03-10T11:54:00.212Z,991.63
2019-03-10T11:55:00.298Z,991.58
2019-03-10T11:56:00.207Z,991.55
2019-03-10T11:57:00.174Z,991.52
2019-03-10T11:58:00.170Z,991.48
2019-03-10T11:59:00.150Z,991.47
2019-03-10T12:00:00.346Z,991.49
2019-03-10T12:01:00.125Z,991.47
2019-03-10T12:02:00.115Z,991.44
2019-03-10T12:03:00.104Z,991.40
2019-03-10T12:04:00.096Z,991.36
2019-03-10T12:05:00.361Z,991.35
2019-03-10T12:06:00.081Z,991.31
2019-03-10T12:07:00.061Z,991.32
2019-03-10T12:08:00.060Z,991.22
2019-03-10T12:09:00.037Z,991.22
2019-03-10T12:10:00.034Z,991.16
2019-03-10T12:11:00.014Z,991.14
2019-03-10T12:12:00.002Z,991.09
2019-03-10T12:13:00.036Z,991.05
2019-03-10T12:13:59.984Z,991.06
2019-03-10T12:14:59.969Z,991.01
2019-03-10T12:15:59.960Z,991.01
2019-03-10T12:16:59.954Z,991.01
2019-03-10T12:17:59.937Z,991.01
2019-03-10T12:18:59.951Z,991.01
2019-03-10T12:19:59.913Z,991.00
2019-03-10T12:20:59.908Z,990.96
2019-03-10T12:21:59.892Z,990.95